sensor_id;sensor_type;location;lat;lon;timestamp;P1;durP1;ratioP1;P2;durP2;ratioP2
79011;SDS011;68418;44.714;37.756;2023-03-31T00:00:17;2.47;;;0.70;;
79011;SDS011;68418;44.714;37.756;2023-03-31T00:01:19;1.55;;;0.75;;
79011;SDS011;68418;44.714;37.756;2023-03-31T00:02:21;1.15;;;0.65;;
79011;SDS011;68418;44.714;37.756;2023-03-31T00:03:23;1.92;;;0.68;;
79011;SDS011;68418;44.714;37.756;2023-03-31T00:04:24;1.75;;;0.73;;
79011;SDS011;68418;44.714;37.756;2023-03-31T00:05:26;1.10;;;0.68;;
79011;SDS011;68418;44.714;37.756;2023-03-31T00:06:28;1.20;;;0.80;;
79011;SDS011;68418;44.714;37.756;2023-03-31T00:07:30;1.38;;;0.65;;
79011;SDS011;68418;44.714;37.756;2023-03-31T00:08:31;1.00;;;0.52;;
79011;SDS011;68418;44.714;37.756;2023-03-31T00:09:35;1.65;;;0.70;;
79011;SDS011;68418;44.714;37.756;2023-03-31T00:10:36;1.10;;;0.70;;
79011;SDS011;68418;44.714;37.756;2023-03-31T00:11:45;1.60;;;0.80;;
79011;SDS011;68418;44.714;37.756;2023-03-31T00:12:46;1.92;;;0.80;;
79011;SDS011;68418;44.714;37.756;2023-03-31T00:13:48;1.80;;;0.80;;
79011;SDS011;68418;44.714;37.756;2023-03-31T00:14:50;1.83;;;0.70;;
79011;SDS011;68418;44.714;37.756;2023-03-31T00:15:58;2.30;;;0.90;;
79011;SDS011;68418;44.714;37.756;2023-03-31T00:17:01;2.05;;;0.77;;
79011;SDS011;68418;44.714;37.756;2023-03-31T00:18:04;1.55;;;0.60;;
79011;SDS011;68418;44.714;37.756;2023-03-31T00:19:06;1.67;;;0.70;;
79011;SDS011;68418;44.714;37.756;2023-03-31T00:20:10;1.50;;;0.68;;
79011;SDS011;68418;44.714;37.756;2023-03-31T00:21:13;1.55;;;0.63;;
79011;SDS011;68418;44.714;37.756;2023-03-31T00:22:24;1.30;;;0.50;;
79011;SDS011;68418;44.714;37.756;2023-03-31T00:23:27;1.23;;;0.52;;
79011;SDS011;68418;44.714;37.756;2023-03-31T00:24:28;1.67;;;0.70;;
79011;SDS011;68418;44.714;37.756;2023-03-31T00:25:33;1.48;;;0.60;;
79011;SDS011;68418;44.714;37.756;2023-03-31T00:26:34;1.48;;;0.60;;
79011;SDS011;68418;44.714;37.756;2023-03-31T00:27:37;1.05;;;0.52;;
79011;SDS011;68418;44.714;37.756;2023-03-31T00:28:42;2.60;;;0.80;;
79011;SDS011;68418;44.714;37.756;2023-03-31T00:29:43;0.85;;;0.50;;
79011;SDS011;68418;44.714;37.756;2023-03-31T00:30:45;1.60;;;0.80;;
79011;SDS011;68418;44.714;37.756;2023-03-31T00:31:47;1.42;;;0.80;;
79011;SDS011;68418;44.714;37.756;2023-03-31T00:32:48;1.48;;;0.63;;
79011;SDS011;68418;44.714;37.756;2023-03-31T00:33:50;1.85;;;0.77;;
79011;SDS011;68418;44.714;37.756;2023-03-31T00:34:51;1.35;;;0.60;;
79011;SDS011;68418;44.714;37.756;2023-03-31T00:35:53;1.23;;;0.57;;
79011;SDS011;68418;44.714;37.756;2023-03-31T00:36:55;1.52;;;0.80;;
79011;SDS011;68418;44.714;37.756;2023-03-31T00:37:58;2.60;;;1.00;;
79011;SDS011;68418;44.714;37.756;2023-03-31T00:39:00;1.67;;;0.73;;
79011;SDS011;68418;44.714;37.756;2023-03-31T00:40:09;1.52;;;0.77;;
79011;SDS011;68418;44.714;37.756;2023-03-31T00:41:13;1.25;;;0.70;;
79011;SDS011;68418;44.714;37.756;2023-03-31T00:42:15;2.33;;;0.80;;
79011;SDS011;68418;44.714;37.756;2023-03-31T00:44:37;1.42;;;0.88;;
79011;SDS011;68418;44.714;37.756;2023-03-31T00:46:22;1.20;;;0.60;;
79011;SDS011;68418;44.714;37.756;2023-03-31T00:47:27;1.05;;;0.60;;
79011;SDS011;68418;44.714;37.756;2023-03-31T00:48:29;1.88;;;0.90;;
79011;SDS011;68418;44.714;37.756;2023-03-31T00:50:47;1.88;;;0.88;;
79011;SDS011;68418;44.714;37.756;2023-03-31T00:52:06;0.75;;;0.68;;
79011;SDS011;68418;44.714;37.756;2023-03-31T00:53:10;1.05;;;0.60;;
79011;SDS011;68418;44.714;37.756;2023-03-31T00:54:13;1.52;;;0.70;;
79011;SDS011;68418;44.714;37.756;2023-03-31T00:55:16;1.60;;;0.77;;
79011;SDS011;68418;44.714;37.756;2023-03-31T00:56:20;1.92;;;0.82;;
79011;SDS011;68418;44.714;37.756;2023-03-31T00:57:22;2.05;;;0.75;;
79011;SDS011;68418;44.714;37.756;2023-03-31T00:58:25;1.65;;;0.73;;
79011;SDS011;68418;44.714;37.756;2023-03-31T00:59:37;1.60;;;0.70;;
79011;SDS011;68418;44.714;37.756;2023-03-31T01:00:41;1.85;;;0.85;;
79011;SDS011;68418;44.714;37.756;2023-03-31T01:01:43;1.83;;;0.70;;
79011;SDS011;68418;44.714;37.756;2023-03-31T01:02:47;1.42;;;0.68;;
79011;SDS011;68418;44.714;37.756;2023-03-31T01:03:58;0.80;;;0.68;;
79011;SDS011;68418;44.714;37.756;2023-03-31T01:04:59;2.13;;;0.80;;
79011;SDS011;68418;44.714;37.756;2023-03-31T01:06:02;1.80;;;0.70;;
79011;SDS011;68418;44.714;37.756;2023-03-31T01:07:15;1.88;;;0.80;;
79011;SDS011;68418;44.714;37.756;2023-03-31T01:08:19;1.10;;;0.60;;
79011;SDS011;68418;44.714;37.756;2023-03-31T01:09:24;1.42;;;0.77;;
79011;SDS011;68418;44.714;37.756;2023-03-31T01:10:32;1.73;;;0.68;;
79011;SDS011;68418;44.714;37.756;2023-03-31T01:11:42;1.90;;;0.80;;
79011;SDS011;68418;44.714;37.756;2023-03-31T01:12:47;1.92;;;0.70;;
79011;SDS011;68418;44.714;37.756;2023-03-31T01:13:51;1.38;;;0.70;;
79011;SDS011;68418;44.714;37.756;2023-03-31T01:14:55;2.10;;;0.73;;
79011;SDS011;68418;44.714;37.756;2023-03-31T01:15:57;1.77;;;0.70;;
79011;SDS011;68418;44.714;37.756;2023-03-31T01:17:00;2.22;;;0.80;;
79011;SDS011;68418;44.714;37.756;2023-03-31T01:18:03;1.30;;;0.70;;
79011;SDS011;68418;44.714;37.756;2023-03-31T01:19:11;1.20;;;0.60;;
79011;SDS011;68418;44.714;37.756;2023-03-31T01:21:47;1.42;;;0.60;;
79011;SDS011;68418;44.714;37.756;2023-03-31T01:44:57;1.73;;;0.70;;
79011;SDS011;68418;44.714;37.756;2023-03-31T01:47:41;1.88;;;0.80;;
79011;SDS011;68418;44.714;37.756;2023-03-31T01:50:01;2.03;;;0.70;;
79011;SDS011;68418;44.714;37.756;2023-03-31T01:52:44;1.33;;;0.70;;
79011;SDS011;68418;44.714;37.756;2023-03-31T01:53:54;1.80;;;0.70;;
79011;SDS011;68418;44.714;37.756;2023-03-31T01:55:07;2.22;;;0.68;;
79011;SDS011;68418;44.714;37.756;2023-03-31T01:58:33;1.33;;;0.73;;
79011;SDS011;68418;44.714;37.756;2023-03-31T01:59:42;0.88;;;0.63;;
79011;SDS011;68418;44.714;37.756;2023-03-31T02:01:35;1.02;;;0.60;;
79011;SDS011;68418;44.714;37.756;2023-03-31T02:02:39;2.25;;;0.88;;
79011;SDS011;68418;44.714;37.756;2023-03-31T02:04:00;1.48;;;0.70;;
79011;SDS011;68418;44.714;37.756;2023-03-31T02:05:12;1.17;;;0.70;;
79011;SDS011;68418;44.714;37.756;2023-03-31T02:06:19;1.90;;;0.70;;
79011;SDS011;68418;44.714;37.756;2023-03-31T02:07:26;1.55;;;0.80;;
79011;SDS011;68418;44.714;37.756;2023-03-31T02:08:43;1.70;;;0.73;;
79011;SDS011;68418;44.714;37.756;2023-03-31T02:09:51;1.08;;;0.60;;
79011;SDS011;68418;44.714;37.756;2023-03-31T02:10:57;2.38;;;0.80;;
79011;SDS011;68418;44.714;37.756;2023-03-31T02:12:01;1.70;;;0.75;;
79011;SDS011;68418;44.714;37.756;2023-03-31T02:13:07;1.08;;;0.70;;
79011;SDS011;68418;44.714;37.756;2023-03-31T02:14:11;1.38;;;0.57;;
79011;SDS011;68418;44.714;37.756;2023-03-31T02:15:20;1.88;;;0.82;;
79011;SDS011;68418;44.714;37.756;2023-03-31T02:16:27;1.83;;;0.80;;
79011;SDS011;68418;44.714;37.756;2023-03-31T02:17:31;1.15;;;0.68;;
79011;SDS011;68418;44.714;37.756;2023-03-31T02:18:33;1.95;;;0.90;;
79011;SDS011;68418;44.714;37.756;2023-03-31T02:19:38;2.15;;;0.90;;
79011;SDS011;68418;44.714;37.756;2023-03-31T02:20:41;2.08;;;0.80;;
79011;SDS011;68418;44.714;37.756;2023-03-31T02:21:49;1.33;;;0.60;;
79011;SDS011;68418;44.714;37.756;2023-03-31T02:22:52;1.48;;;0.60;;
79011;SDS011;68418;44.714;37.756;2023-03-31T02:23:55;0.98;;;0.57;;
79011;SDS011;68418;44.714;37.756;2023-03-31T02:24:57;0.98;;;0.60;;
79011;SDS011;68418;44.714;37.756;2023-03-31T02:26:05;1.23;;;0.60;;
79011;SDS011;68418;44.714;37.756;2023-03-31T02:27:34;1.85;;;0.73;;
79011;SDS011;68418;44.714;37.756;2023-03-31T02:28:39;2.17;;;0.90;;
79011;SDS011;68418;44.714;37.756;2023-03-31T02:29:41;1.92;;;0.70;;
79011;SDS011;68418;44.714;37.756;2023-03-31T02:33:13;1.70;;;0.80;;
79011;SDS011;68418;44.714;37.756;2023-03-31T02:34:16;0.70;;;0.63;;
79011;SDS011;68418;44.714;37.756;2023-03-31T02:35:18;2.05;;;0.80;;
79011;SDS011;68418;44.714;37.756;2023-03-31T02:36:22;2.35;;;0.90;;
79011;SDS011;68418;44.714;37.756;2023-03-31T02:37:25;1.00;;;0.60;;
79011;SDS011;68418;44.714;37.756;2023-03-31T02:38:27;2.28;;;0.80;;
79011;SDS011;68418;44.714;37.756;2023-03-31T02:39:33;0.43;;;0.43;;
79011;SDS011;68418;44.714;37.756;2023-03-31T02:40:36;1.45;;;0.65;;
79011;SDS011;68418;44.714;37.756;2023-03-31T02:41:37;1.48;;;0.73;;
79011;SDS011;68418;44.714;37.756;2023-03-31T02:42:39;1.42;;;0.70;;
79011;SDS011;68418;44.714;37.756;2023-03-31T02:43:41;1.65;;;0.52;;
79011;SDS011;68418;44.714;37.756;2023-03-31T02:44:42;1.27;;;0.57;;
79011;SDS011;68418;44.714;37.756;2023-03-31T02:45:45;0.63;;;0.50;;
79011;SDS011;68418;44.714;37.756;2023-03-31T02:46:49;0.85;;;0.57;;
79011;SDS011;68418;44.714;37.756;2023-03-31T02:47:51;0.98;;;0.68;;
79011;SDS011;68418;44.714;37.756;2023-03-31T02:48:54;1.25;;;0.60;;
79011;SDS011;68418;44.714;37.756;2023-03-31T02:49:58;1.48;;;0.60;;
79011;SDS011;68418;44.714;37.756;2023-03-31T02:58:43;1.60;;;0.70;;
79011;SDS011;68418;44.714;37.756;2023-03-31T03:02:44;1.25;;;0.57;;
79011;SDS011;68418;44.714;37.756;2023-03-31T03:04:21;1.48;;;0.52;;
79011;SDS011;68418;44.714;37.756;2023-03-31T03:05:52;1.25;;;0.60;;
79011;SDS011;68418;44.714;37.756;2023-03-31T03:09:19;1.02;;;0.60;;
79011;SDS011;68418;44.714;37.756;2023-03-31T03:10:34;1.60;;;0.60;;
79011;SDS011;68418;44.714;37.756;2023-03-31T03:11:51;1.35;;;0.50;;
79011;SDS011;68418;44.714;37.756;2023-03-31T03:15:42;0.85;;;0.52;;
79011;SDS011;68418;44.714;37.756;2023-03-31T03:16:48;1.08;;;0.60;;
79011;SDS011;68418;44.714;37.756;2023-03-31T03:19:02;1.17;;;0.70;;
79011;SDS011;68418;44.714;37.756;2023-03-31T03:20:06;1.50;;;0.80;;
79011;SDS011;68418;44.714;37.756;2023-03-31T03:21:09;0.88;;;0.55;;
79011;SDS011;68418;44.714;37.756;2023-03-31T03:22:10;1.50;;;0.70;;
79011;SDS011;68418;44.714;37.756;2023-03-31T03:23:12;1.80;;;0.60;;
79011;SDS011;68418;44.714;37.756;2023-03-31T03:24:14;1.63;;;0.77;;
79011;SDS011;68418;44.714;37.756;2023-03-31T03:25:17;1.98;;;0.75;;
79011;SDS011;68418;44.714;37.756;2023-03-31T03:26:20;1.52;;;0.60;;
79011;SDS011;68418;44.714;37.756;2023-03-31T03:27:24;0.88;;;0.50;;
79011;SDS011;68418;44.714;37.756;2023-03-31T03:28:25;1.30;;;0.73;;
79011;SDS011;68418;44.714;37.756;2023-03-31T03:29:27;1.60;;;0.70;;
79011;SDS011;68418;44.714;37.756;2023-03-31T03:30:29;1.38;;;0.50;;
79011;SDS011;68418;44.714;37.756;2023-03-31T03:31:30;1.17;;;0.60;;
79011;SDS011;68418;44.714;37.756;2023-03-31T03:32:33;1.25;;;0.75;;
79011;SDS011;68418;44.714;37.756;2023-03-31T03:33:35;1.25;;;0.70;;
79011;SDS011;68418;44.714;37.756;2023-03-31T03:34:37;1.35;;;0.60;;
79011;SDS011;68418;44.714;37.756;2023-03-31T03:35:38;1.42;;;0.50;;
79011;SDS011;68418;44.714;37.756;2023-03-31T03:36:40;1.35;;;0.70;;
79011;SDS011;68418;44.714;37.756;2023-03-31T03:37:41;1.17;;;0.50;;
79011;SDS011;68418;44.714;37.756;2023-03-31T03:38:43;1.23;;;0.70;;
79011;SDS011;68418;44.714;37.756;2023-03-31T03:39:45;0.68;;;0.52;;
79011;SDS011;68418;44.714;37.756;2023-03-31T03:40:46;1.42;;;0.70;;
79011;SDS011;68418;44.714;37.756;2023-03-31T03:41:52;1.83;;;0.70;;
79011;SDS011;68418;44.714;37.756;2023-03-31T03:42:54;1.52;;;0.65;;
79011;SDS011;68418;44.714;37.756;2023-03-31T03:43:56;0.93;;;0.55;;
79011;SDS011;68418;44.714;37.756;2023-03-31T03:44:57;1.08;;;0.52;;
79011;SDS011;68418;44.714;37.756;2023-03-31T03:45:59;0.52;;;0.52;;
79011;SDS011;68418;44.714;37.756;2023-03-31T03:47:00;1.25;;;0.60;;
79011;SDS011;68418;44.714;37.756;2023-03-31T03:48:02;2.22;;;0.50;;
79011;SDS011;68418;44.714;37.756;2023-03-31T03:49:03;1.13;;;0.50;;
79011;SDS011;68418;44.714;37.756;2023-03-31T03:50:05;1.58;;;0.70;;
79011;SDS011;68418;44.714;37.756;2023-03-31T03:51:07;0.80;;;0.47;;
79011;SDS011;68418;44.714;37.756;2023-03-31T03:52:09;0.82;;;0.40;;
79011;SDS011;68418;44.714;37.756;2023-03-31T03:53:10;2.72;;;0.80;;
79011;SDS011;68418;44.714;37.756;2023-03-31T03:54:12;2.40;;;0.75;;
79011;SDS011;68418;44.714;37.756;2023-03-31T03:55:14;1.40;;;0.55;;
79011;SDS011;68418;44.714;37.756;2023-03-31T03:56:17;1.10;;;0.70;;
79011;SDS011;68418;44.714;37.756;2023-03-31T03:57:19;2.38;;;0.70;;
79011;SDS011;68418;44.714;37.756;2023-03-31T03:58:20;0.85;;;0.43;;
79011;SDS011;68418;44.714;37.756;2023-03-31T03:59:22;1.30;;;0.57;;
79011;SDS011;68418;44.714;37.756;2023-03-31T04:00:23;1.50;;;0.52;;
79011;SDS011;68418;44.714;37.756;2023-03-31T04:01:25;2.08;;;0.70;;
79011;SDS011;68418;44.714;37.756;2023-03-31T04:02:27;2.13;;;0.63;;
79011;SDS011;68418;44.714;37.756;2023-03-31T04:03:28;1.05;;;0.50;;
79011;SDS011;68418;44.714;37.756;2023-03-31T04:04:31;3.85;;;1.13;;
79011;SDS011;68418;44.714;37.756;2023-03-31T04:05:32;2.50;;;0.82;;
79011;SDS011;68418;44.714;37.756;2023-03-31T04:06:34;2.05;;;0.68;;
79011;SDS011;68418;44.714;37.756;2023-03-31T04:07:35;2.67;;;1.00;;
79011;SDS011;68418;44.714;37.756;2023-03-31T04:08:37;8.20;;;2.40;;
79011;SDS011;68418;44.714;37.756;2023-03-31T04:09:38;15.55;;;3.72;;
79011;SDS011;68418;44.714;37.756;2023-03-31T04:10:46;6.75;;;1.67;;
79011;SDS011;68418;44.714;37.756;2023-03-31T04:11:49;8.82;;;1.88;;
79011;SDS011;68418;44.714;37.756;2023-03-31T04:12:50;16.27;;;3.22;;
79011;SDS011;68418;44.714;37.756;2023-03-31T04:13:52;13.15;;;2.97;;
79011;SDS011;68418;44.714;37.756;2023-03-31T04:14:53;9.88;;;1.92;;
79011;SDS011;68418;44.714;37.756;2023-03-31T04:15:55;12.60;;;2.83;;
79011;SDS011;68418;44.714;37.756;2023-03-31T04:16:56;10.77;;;2.60;;
79011;SDS011;68418;44.714;37.756;2023-03-31T04:18:01;8.90;;;3.00;;
79011;SDS011;68418;44.714;37.756;2023-03-31T04:19:02;17.48;;;4.68;;
79011;SDS011;68418;44.714;37.756;2023-03-31T04:20:08;14.75;;;4.35;;
79011;SDS011;68418;44.714;37.756;2023-03-31T04:21:12;18.77;;;4.53;;
79011;SDS011;68418;44.714;37.756;2023-03-31T04:22:22;14.77;;;3.38;;
79011;SDS011;68418;44.714;37.756;2023-03-31T04:23:32;16.88;;;3.55;;
79011;SDS011;68418;44.714;37.756;2023-03-31T04:24:38;15.10;;;3.15;;
79011;SDS011;68418;44.714;37.756;2023-03-31T04:25:39;19.27;;;3.92;;
79011;SDS011;68418;44.714;37.756;2023-03-31T04:26:47;12.27;;;3.80;;
79011;SDS011;68418;44.714;37.756;2023-03-31T04:27:50;18.15;;;3.40;;
79011;SDS011;68418;44.714;37.756;2023-03-31T04:28:58;16.15;;;4.00;;
79011;SDS011;68418;44.714;37.756;2023-03-31T04:30:01;20.00;;;3.90;;
79011;SDS011;68418;44.714;37.756;2023-03-31T04:31:03;15.27;;;3.83;;
79011;SDS011;68418;44.714;37.756;2023-03-31T04:32:09;15.73;;;4.28;;
79011;SDS011;68418;44.714;37.756;2023-03-31T04:33:14;17.92;;;4.28;;
79011;SDS011;68418;44.714;37.756;2023-03-31T04:34:17;17.38;;;3.88;;
79011;SDS011;68418;44.714;37.756;2023-03-31T04:35:19;13.77;;;3.42;;
79011;SDS011;68418;44.714;37.756;2023-03-31T04:36:24;14.38;;;4.25;;
79011;SDS011;68418;44.714;37.756;2023-03-31T04:37:26;14.70;;;3.38;;
79011;SDS011;68418;44.714;37.756;2023-03-31T04:38:34;14.75;;;3.08;;
79011;SDS011;68418;44.714;37.756;2023-03-31T04:39:35;13.98;;;3.53;;
79011;SDS011;68418;44.714;37.756;2023-03-31T04:40:37;14.20;;;3.92;;
79011;SDS011;68418;44.714;37.756;2023-03-31T04:41:39;10.13;;;2.80;;
79011;SDS011;68418;44.714;37.756;2023-03-31T04:42:41;10.77;;;3.00;;
79011;SDS011;68418;44.714;37.756;2023-03-31T04:43:44;15.25;;;3.97;;
79011;SDS011;68418;44.714;37.756;2023-03-31T04:44:45;14.60;;;3.10;;
79011;SDS011;68418;44.714;37.756;2023-03-31T04:45:47;12.25;;;3.10;;
79011;SDS011;68418;44.714;37.756;2023-03-31T04:46:48;11.90;;;2.75;;
79011;SDS011;68418;44.714;37.756;2023-03-31T04:47:50;12.35;;;3.47;;
79011;SDS011;68418;44.714;37.756;2023-03-31T04:48:51;13.05;;;3.00;;
79011;SDS011;68418;44.714;37.756;2023-03-31T04:49:52;11.25;;;2.78;;
79011;SDS011;68418;44.714;37.756;2023-03-31T04:50:54;14.32;;;3.65;;
79011;SDS011;68418;44.714;37.756;2023-03-31T04:51:55;16.88;;;3.95;;
79011;SDS011;68418;44.714;37.756;2023-03-31T04:52:56;14.05;;;2.97;;
79011;SDS011;68418;44.714;37.756;2023-03-31T04:53:57;11.20;;;3.03;;
79011;SDS011;68418;44.714;37.756;2023-03-31T04:54:59;12.93;;;3.90;;
79011;SDS011;68418;44.714;37.756;2023-03-31T04:56:00;15.25;;;3.60;;
79011;SDS011;68418;44.714;37.756;2023-03-31T04:57:02;10.88;;;2.75;;
79011;SDS011;68418;44.714;37.756;2023-03-31T04:58:03;11.18;;;2.53;;
79011;SDS011;68418;44.714;37.756;2023-03-31T04:59:04;11.23;;;2.75;;
79011;SDS011;68418;44.714;37.756;2023-03-31T05:00:07;13.43;;;2.55;;
79011;SDS011;68418;44.714;37.756;2023-03-31T05:01:10;13.02;;;3.05;;
79011;SDS011;68418;44.714;37.756;2023-03-31T05:02:17;14.70;;;3.35;;
79011;SDS011;68418;44.714;37.756;2023-03-31T05:03:23;12.88;;;3.28;;
79011;SDS011;68418;44.714;37.756;2023-03-31T05:04:24;13.05;;;3.03;;
79011;SDS011;68418;44.714;37.756;2023-03-31T05:05:26;11.18;;;3.05;;
79011;SDS011;68418;44.714;37.756;2023-03-31T05:06:27;11.02;;;3.20;;
79011;SDS011;68418;44.714;37.756;2023-03-31T05:07:29;10.75;;;2.08;;
79011;SDS011;68418;44.714;37.756;2023-03-31T05:08:31;10.45;;;3.20;;
79011;SDS011;68418;44.714;37.756;2023-03-31T05:09:33;11.73;;;3.00;;
79011;SDS011;68418;44.714;37.756;2023-03-31T05:10:34;9.95;;;2.95;;
79011;SDS011;68418;44.714;37.756;2023-03-31T05:11:35;11.52;;;3.33;;
79011;SDS011;68418;44.714;37.756;2023-03-31T05:12:37;10.95;;;2.95;;
79011;SDS011;68418;44.714;37.756;2023-03-31T05:13:39;10.35;;;2.67;;
79011;SDS011;68418;44.714;37.756;2023-03-31T05:14:40;6.90;;;2.40;;
79011;SDS011;68418;44.714;37.756;2023-03-31T05:15:42;8.68;;;2.15;;
79011;SDS011;68418;44.714;37.756;2023-03-31T05:16:45;9.40;;;2.92;;
79011;SDS011;68418;44.714;37.756;2023-03-31T05:17:46;11.38;;;2.70;;
79011;SDS011;68418;44.714;37.756;2023-03-31T05:18:47;11.65;;;2.75;;
79011;SDS011;68418;44.714;37.756;2023-03-31T05:19:48;8.23;;;2.38;;
79011;SDS011;68418;44.714;37.756;2023-03-31T05:20:50;13.98;;;2.70;;
79011;SDS011;68418;44.714;37.756;2023-03-31T05:21:51;9.98;;;2.08;;
79011;SDS011;68418;44.714;37.756;2023-03-31T05:22:53;11.88;;;2.80;;
79011;SDS011;68418;44.714;37.756;2023-03-31T05:23:54;10.50;;;2.55;;
79011;SDS011;68418;44.714;37.756;2023-03-31T05:24:55;10.98;;;2.97;;
79011;SDS011;68418;44.714;37.756;2023-03-31T05:25:56;10.95;;;2.47;;
79011;SDS011;68418;44.714;37.756;2023-03-31T05:26:58;9.95;;;2.78;;
79011;SDS011;68418;44.714;37.756;2023-03-31T05:27:59;10.13;;;2.95;;
79011;SDS011;68418;44.714;37.756;2023-03-31T05:29:01;8.45;;;2.22;;
79011;SDS011;68418;44.714;37.756;2023-03-31T05:30:02;6.90;;;1.90;;
79011;SDS011;68418;44.714;37.756;2023-03-31T05:31:05;8.52;;;1.85;;
79011;SDS011;68418;44.714;37.756;2023-03-31T05:32:08;7.75;;;2.05;;
79011;SDS011;68418;44.714;37.756;2023-03-31T05:33:09;8.55;;;2.00;;
79011;SDS011;68418;44.714;37.756;2023-03-31T05:34:11;9.18;;;2.00;;
79011;SDS011;68418;44.714;37.756;2023-03-31T05:35:13;11.20;;;2.88;;
79011;SDS011;68418;44.714;37.756;2023-03-31T05:36:15;10.25;;;2.42;;
79011;SDS011;68418;44.714;37.756;2023-03-31T05:37:19;7.78;;;2.03;;
79011;SDS011;68418;44.714;37.756;2023-03-31T05:38:20;8.48;;;2.20;;
79011;SDS011;68418;44.714;37.756;2023-03-31T05:39:22;8.70;;;2.47;;
79011;SDS011;68418;44.714;37.756;2023-03-31T05:40:23;6.97;;;1.88;;
79011;SDS011;68418;44.714;37.756;2023-03-31T05:41:24;9.40;;;2.30;;
79011;SDS011;68418;44.714;37.756;2023-03-31T05:42:26;7.07;;;2.20;;
79011;SDS011;68418;44.714;37.756;2023-03-31T05:43:27;8.50;;;2.10;;
79011;SDS011;68418;44.714;37.756;2023-03-31T05:44:28;6.55;;;1.52;;
79011;SDS011;68418;44.714;37.756;2023-03-31T05:45:30;9.38;;;2.72;;
79011;SDS011;68418;44.714;37.756;2023-03-31T05:46:31;7.78;;;2.00;;
79011;SDS011;68418;44.714;37.756;2023-03-31T05:47:32;6.05;;;1.70;;
79011;SDS011;68418;44.714;37.756;2023-03-31T05:48:34;10.05;;;2.20;;
79011;SDS011;68418;44.714;37.756;2023-03-31T05:49:37;5.90;;;1.80;;
79011;SDS011;68418;44.714;37.756;2023-03-31T05:50:38;7.63;;;2.22;;
79011;SDS011;68418;44.714;37.756;2023-03-31T05:51:40;9.40;;;1.98;;
79011;SDS011;68418;44.714;37.756;2023-03-31T05:52:41;6.60;;;2.13;;
79011;SDS011;68418;44.714;37.756;2023-03-31T05:53:43;7.10;;;1.70;;
79011;SDS011;68418;44.714;37.756;2023-03-31T05:54:45;7.80;;;2.03;;
79011;SDS011;68418;44.714;37.756;2023-03-31T05:55:47;5.78;;;1.48;;
79011;SDS011;68418;44.714;37.756;2023-03-31T05:56:48;7.50;;;2.13;;
79011;SDS011;68418;44.714;37.756;2023-03-31T05:57:50;8.13;;;2.58;;
79011;SDS011;68418;44.714;37.756;2023-03-31T05:58:52;7.45;;;1.83;;
79011;SDS011;68418;44.714;37.756;2023-03-31T05:59:53;7.18;;;2.03;;
79011;SDS011;68418;44.714;37.756;2023-03-31T06:01:05;7.55;;;1.90;;
79011;SDS011;68418;44.714;37.756;2023-03-31T06:02:10;6.18;;;1.73;;
79011;SDS011;68418;44.714;37.756;2023-03-31T06:03:13;4.85;;;1.48;;
79011;SDS011;68418;44.714;37.756;2023-03-31T06:04:14;7.63;;;1.73;;
79011;SDS011;68418;44.714;37.756;2023-03-31T06:05:16;6.90;;;1.75;;
79011;SDS011;68418;44.714;37.756;2023-03-31T06:06:18;5.63;;;1.60;;
79011;SDS011;68418;44.714;37.756;2023-03-31T06:07:22;9.80;;;2.45;;
79011;SDS011;68418;44.714;37.756;2023-03-31T06:08:24;6.05;;;1.70;;
79011;SDS011;68418;44.714;37.756;2023-03-31T06:09:27;6.00;;;1.77;;
79011;SDS011;68418;44.714;37.756;2023-03-31T06:10:28;7.88;;;2.05;;
79011;SDS011;68418;44.714;37.756;2023-03-31T06:11:30;7.68;;;2.28;;
79011;SDS011;68418;44.714;37.756;2023-03-31T06:12:32;6.82;;;1.85;;
79011;SDS011;68418;44.714;37.756;2023-03-31T06:13:34;6.22;;;1.80;;
79011;SDS011;68418;44.714;37.756;2023-03-31T06:14:36;6.18;;;1.92;;
79011;SDS011;68418;44.714;37.756;2023-03-31T06:15:37;6.00;;;1.50;;
79011;SDS011;68418;44.714;37.756;2023-03-31T06:16:39;6.50;;;1.65;;
79011;SDS011;68418;44.714;37.756;2023-03-31T06:17:41;6.90;;;1.70;;
79011;SDS011;68418;44.714;37.756;2023-03-31T06:18:42;5.82;;;1.70;;
79011;SDS011;68418;44.714;37.756;2023-03-31T06:19:44;7.22;;;1.95;;
79011;SDS011;68418;44.714;37.756;2023-03-31T06:20:45;6.30;;;1.88;;
79011;SDS011;68418;44.714;37.756;2023-03-31T06:21:47;6.82;;;1.65;;
79011;SDS011;68418;44.714;37.756;2023-03-31T06:22:48;5.40;;;1.40;;
79011;SDS011;68418;44.714;37.756;2023-03-31T06:23:50;8.52;;;2.05;;
79011;SDS011;68418;44.714;37.756;2023-03-31T06:24:55;6.55;;;2.13;;
79011;SDS011;68418;44.714;37.756;2023-03-31T06:26:00;5.75;;;1.80;;
79011;SDS011;68418;44.714;37.756;2023-03-31T06:27:04;4.90;;;1.70;;
79011;SDS011;68418;44.714;37.756;2023-03-31T06:28:07;6.45;;;1.73;;
79011;SDS011;68418;44.714;37.756;2023-03-31T06:29:08;4.95;;;1.48;;
79011;SDS011;68418;44.714;37.756;2023-03-31T06:30:10;5.43;;;1.50;;
79011;SDS011;68418;44.714;37.756;2023-03-31T06:31:13;7.53;;;1.98;;
79011;SDS011;68418;44.714;37.756;2023-03-31T06:32:16;5.32;;;1.42;;
79011;SDS011;68418;44.714;37.756;2023-03-31T06:33:17;5.38;;;1.63;;
79011;SDS011;68418;44.714;37.756;2023-03-31T06:34:19;5.25;;;1.50;;
79011;SDS011;68418;44.714;37.756;2023-03-31T06:35:22;6.35;;;1.60;;
79011;SDS011;68418;44.714;37.756;2023-03-31T06:36:23;6.80;;;1.85;;
79011;SDS011;68418;44.714;37.756;2023-03-31T06:37:25;5.82;;;1.45;;
79011;SDS011;68418;44.714;37.756;2023-03-31T06:38:26;7.32;;;1.83;;
79011;SDS011;68418;44.714;37.756;2023-03-31T06:39:28;5.63;;;1.52;;
79011;SDS011;68418;44.714;37.756;2023-03-31T06:40:30;4.80;;;1.35;;
79011;SDS011;68418;44.714;37.756;2023-03-31T06:41:31;4.05;;;1.30;;
79011;SDS011;68418;44.714;37.756;2023-03-31T06:42:33;6.15;;;1.85;;
79011;SDS011;68418;44.714;37.756;2023-03-31T06:43:34;5.22;;;1.38;;
79011;SDS011;68418;44.714;37.756;2023-03-31T06:44:36;7.22;;;2.17;;
79011;SDS011;68418;44.714;37.756;2023-03-31T06:45:37;4.40;;;1.52;;
79011;SDS011;68418;44.714;37.756;2023-03-31T06:46:39;6.60;;;1.70;;
79011;SDS011;68418;44.714;37.756;2023-03-31T06:47:40;4.43;;;1.20;;
79011;SDS011;68418;44.714;37.756;2023-03-31T06:48:41;4.15;;;1.70;;
79011;SDS011;68418;44.714;37.756;2023-03-31T06:49:43;3.92;;;1.42;;
79011;SDS011;68418;44.714;37.756;2023-03-31T06:50:44;5.38;;;1.60;;
79011;SDS011;68418;44.714;37.756;2023-03-31T06:51:46;4.72;;;1.40;;
79011;SDS011;68418;44.714;37.756;2023-03-31T06:52:47;5.68;;;1.52;;
79011;SDS011;68418;44.714;37.756;2023-03-31T06:53:48;5.45;;;1.85;;
79011;SDS011;68418;44.714;37.756;2023-03-31T06:54:49;4.35;;;1.23;;
79011;SDS011;68418;44.714;37.756;2023-03-31T06:55:51;3.80;;;1.17;;
79011;SDS011;68418;44.714;37.756;2023-03-31T06:56:52;4.40;;;1.33;;
79011;SDS011;68418;44.714;37.756;2023-03-31T06:57:53;5.90;;;1.50;;
79011;SDS011;68418;44.714;37.756;2023-03-31T06:58:55;4.50;;;1.52;;
79011;SDS011;68418;44.714;37.756;2023-03-31T06:59:56;4.80;;;1.33;;
79011;SDS011;68418;44.714;37.756;2023-03-31T07:00:57;4.38;;;1.48;;
79011;SDS011;68418;44.714;37.756;2023-03-31T07:01:59;5.40;;;1.67;;
79011;SDS011;68418;44.714;37.756;2023-03-31T07:03:00;4.82;;;1.63;;
79011;SDS011;68418;44.714;37.756;2023-03-31T07:04:03;5.55;;;1.45;;
79011;SDS011;68418;44.714;37.756;2023-03-31T07:05:05;4.82;;;1.50;;
79011;SDS011;68418;44.714;37.756;2023-03-31T07:06:07;6.53;;;1.50;;
79011;SDS011;68418;44.714;37.756;2023-03-31T07:07:08;4.75;;;1.50;;
79011;SDS011;68418;44.714;37.756;2023-03-31T07:08:09;5.38;;;1.48;;